sensor_id;sensor_type;location;lat;lon;timestamp;P1;durP1;ratioP1;P2;durP2;ratioP2
47167;SDS011;32931;47.778;17.806;2023-07-20T00:02:16;11.02;;;3.97;;
47167;SDS011;32931;47.778;17.806;2023-07-20T00:04:42;7.75;;;3.85;;
47167;SDS011;32931;47.778;17.806;2023-07-20T00:07:08;9.48;;;3.60;;
47167;SDS011;32931;47.778;17.806;2023-07-20T00:09:35;7.72;;;3.28;;
47167;SDS011;32931;47.778;17.806;2023-07-20T00:12:01;14.20;;;4.18;;
47167;SDS011;32931;47.778;17.806;2023-07-20T00:14:27;7.65;;;3.30;;
47167;SDS011;32931;47.778;17.806;2023-07-20T00:16:54;10.48;;;3.58;;
47167;SDS011;32931;47.778;17.806;2023-07-20T00:19:24;11.27;;;3.85;;
47167;SDS011;32931;47.778;17.806;2023-07-20T00:21:52;7.85;;;3.88;;
47167;SDS011;32931;47.778;17.806;2023-07-20T00:24:19;7.40;;;3.35;;
47167;SDS011;32931;47.778;17.806;2023-07-20T00:26:45;8.43;;;4.03;;
47167;SDS011;32931;47.778;17.806;2023-07-20T00:29:11;11.68;;;3.38;;
47167;SDS011;32931;47.778;17.806;2023-07-20T00:31:38;12.27;;;3.70;;
47167;SDS011;32931;47.778;17.806;2023-07-20T00:34:04;9.45;;;3.90;;
47167;SDS011;32931;47.778;17.806;2023-07-20T00:36:30;9.27;;;4.00;;
47167;SDS011;32931;47.778;17.806;2023-07-20T00:38:56;9.55;;;3.50;;
47167;SDS011;32931;47.778;17.806;2023-07-20T00:41:22;7.57;;;3.60;;
47167;SDS011;32931;47.778;17.806;2023-07-20T00:43:49;9.70;;;3.88;;
47167;SDS011;32931;47.778;17.806;2023-07-20T00:46:16;6.20;;;3.50;;
47167;SDS011;32931;47.778;17.806;2023-07-20T00:48:42;8.40;;;3.47;;
47167;SDS011;32931;47.778;17.806;2023-07-20T00:51:08;11.82;;;4.18;;
47167;SDS011;32931;47.778;17.806;2023-07-20T00:53:35;10.98;;;3.67;;
47167;SDS011;32931;47.778;17.806;2023-07-20T00:56:02;9.45;;;3.67;;
47167;SDS011;32931;47.778;17.806;2023-07-20T00:58:29;7.50;;;3.63;;
47167;SDS011;32931;47.778;17.806;2023-07-20T01:00:55;21.27;;;3.95;;
47167;SDS011;32931;47.778;17.806;2023-07-20T01:03:21;8.68;;;3.78;;
47167;SDS011;32931;47.778;17.806;2023-07-20T01:11:40;11.80;;;3.85;;
47167;SDS011;32931;47.778;17.806;2023-07-20T01:14:28;6.15;;;3.03;;
47167;SDS011;32931;47.778;17.806;2023-07-20T01:16:57;12.07;;;3.53;;
47167;SDS011;32931;47.778;17.806;2023-07-20T01:19:23;16.15;;;3.35;;
47167;SDS011;32931;47.778;17.806;2023-07-20T01:32:59;8.85;;;3.90;;
47167;SDS011;32931;47.778;17.806;2023-07-20T01:35:28;9.25;;;3.85;;
47167;SDS011;32931;47.778;17.806;2023-07-20T01:37:56;9.95;;;3.63;;
47167;SDS011;32931;47.778;17.806;2023-07-20T01:40:23;9.75;;;3.45;;
47167;SDS011;32931;47.778;17.806;2023-07-20T01:42:50;8.23;;;3.38;;
47167;SDS011;32931;47.778;17.806;2023-07-20T01:45:17;6.70;;;3.63;;
47167;SDS011;32931;47.778;17.806;2023-07-20T01:47:44;5.07;;;3.35;;
47167;SDS011;32931;47.778;17.806;2023-07-20T01:50:10;9.65;;;3.50;;
47167;SDS011;32931;47.778;17.806;2023-07-20T01:52:36;7.10;;;3.50;;
47167;SDS011;32931;47.778;17.806;2023-07-20T01:55:02;7.43;;;3.60;;
47167;SDS011;32931;47.778;17.806;2023-07-20T01:57:29;8.00;;;3.50;;
47167;SDS011;32931;47.778;17.806;2023-07-20T01:59:56;9.75;;;3.70;;
47167;SDS011;32931;47.778;17.806;2023-07-20T02:02:23;6.18;;;3.33;;
47167;SDS011;32931;47.778;17.806;2023-07-20T02:04:52;10.05;;;3.90;;
47167;SDS011;32931;47.778;17.806;2023-07-20T02:07:18;10.25;;;3.75;;
47167;SDS011;32931;47.778;17.806;2023-07-20T02:09:44;10.32;;;4.25;;
47167;SDS011;32931;47.778;17.806;2023-07-20T02:12:10;10.25;;;3.83;;
47167;SDS011;32931;47.778;17.806;2023-07-20T02:14:36;8.98;;;3.72;;
47167;SDS011;32931;47.778;17.806;2023-07-20T02:17:02;8.10;;;3.53;;
47167;SDS011;32931;47.778;17.806;2023-07-20T02:19:29;9.65;;;3.70;;
47167;SDS011;32931;47.778;17.806;2023-07-20T02:21:56;9.77;;;4.05;;
47167;SDS011;32931;47.778;17.806;2023-07-20T02:24:22;9.98;;;3.78;;
47167;SDS011;32931;47.778;17.806;2023-07-20T02:26:48;13.55;;;4.68;;
47167;SDS011;32931;47.778;17.806;2023-07-20T02:29:15;7.65;;;3.28;;
47167;SDS011;32931;47.778;17.806;2023-07-20T02:31:41;7.70;;;3.67;;
47167;SDS011;32931;47.778;17.806;2023-07-20T02:34:08;9.35;;;3.83;;
47167;SDS011;32931;47.778;17.806;2023-07-20T02:36:35;7.40;;;4.00;;
47167;SDS011;32931;47.778;17.806;2023-07-20T02:39:01;8.55;;;3.80;;
47167;SDS011;32931;47.778;17.806;2023-07-20T02:41:33;9.15;;;3.92;;
47167;SDS011;32931;47.778;17.806;2023-07-20T02:43:59;9.48;;;4.28;;
47167;SDS011;32931;47.778;17.806;2023-07-20T02:46:27;15.18;;;5.45;;
47167;SDS011;32931;47.778;17.806;2023-07-20T02:48:55;13.88;;;5.68;;
47167;SDS011;32931;47.778;17.806;2023-07-20T02:51:21;13.05;;;5.60;;
47167;SDS011;32931;47.778;17.806;2023-07-20T02:53:47;18.75;;;6.47;;
47167;SDS011;32931;47.778;17.806;2023-07-20T02:56:13;15.68;;;5.57;;
47167;SDS011;32931;47.778;17.806;2023-07-20T02:58:41;16.15;;;5.72;;
47167;SDS011;32931;47.778;17.806;2023-07-20T03:01:11;12.70;;;6.10;;
47167;SDS011;32931;47.778;17.806;2023-07-20T03:03:37;15.00;;;5.50;;
47167;SDS011;32931;47.778;17.806;2023-07-20T03:06:04;9.18;;;4.93;;
47167;SDS011;32931;47.778;17.806;2023-07-20T03:08:31;8.30;;;4.80;;
47167;SDS011;32931;47.778;17.806;2023-07-20T03:10:57;12.27;;;4.72;;
47167;SDS011;32931;47.778;17.806;2023-07-20T03:13:23;9.15;;;4.40;;
47167;SDS011;32931;47.778;17.806;2023-07-20T03:15:49;12.85;;;4.65;;
47167;SDS011;32931;47.778;17.806;2023-07-20T03:18:17;9.13;;;4.03;;
47167;SDS011;32931;47.778;17.806;2023-07-20T03:20:43;13.65;;;4.63;;
47167;SDS011;32931;47.778;17.806;2023-07-20T03:23:10;14.48;;;4.05;;
47167;SDS011;32931;47.778;17.806;2023-07-20T03:25:36;10.40;;;4.40;;
47167;SDS011;32931;47.778;17.806;2023-07-20T03:28:03;12.13;;;4.50;;
47167;SDS011;32931;47.778;17.806;2023-07-20T03:30:29;9.15;;;4.68;;
47167;SDS011;32931;47.778;17.806;2023-07-20T03:32:55;10.75;;;4.20;;
47167;SDS011;32931;47.778;17.806;2023-07-20T03:35:21;13.75;;;4.70;;
47167;SDS011;32931;47.778;17.806;2023-07-20T03:37:47;10.30;;;4.72;;
47167;SDS011;32931;47.778;17.806;2023-07-20T03:40:13;14.82;;;4.78;;
47167;SDS011;32931;47.778;17.806;2023-07-20T03:42:41;15.07;;;5.07;;
47167;SDS011;32931;47.778;17.806;2023-07-20T03:45:07;11.20;;;5.03;;
47167;SDS011;32931;47.778;17.806;2023-07-20T03:47:34;10.52;;;5.03;;
47167;SDS011;32931;47.778;17.806;2023-07-20T03:50:00;9.90;;;4.90;;
47167;SDS011;32931;47.778;17.806;2023-07-20T03:52:26;12.82;;;5.25;;
47167;SDS011;32931;47.778;17.806;2023-07-20T03:54:52;15.23;;;5.50;;
47167;SDS011;32931;47.778;17.806;2023-07-20T03:57:18;11.70;;;4.72;;
47167;SDS011;32931;47.778;17.806;2023-07-20T03:59:45;14.43;;;5.38;;
47167;SDS011;32931;47.778;17.806;2023-07-20T04:02:11;9.98;;;4.40;;
47167;SDS011;32931;47.778;17.806;2023-07-20T04:04:37;12.90;;;4.28;;
47167;SDS011;32931;47.778;17.806;2023-07-20T04:07:04;9.50;;;4.32;;
47167;SDS011;32931;47.778;17.806;2023-07-20T04:09:31;7.85;;;4.20;;
47167;SDS011;32931;47.778;17.806;2023-07-20T04:11:57;10.77;;;4.10;;
47167;SDS011;32931;47.778;17.806;2023-07-20T04:14:23;13.98;;;3.90;;
47167;SDS011;32931;47.778;17.806;2023-07-20T04:16:49;13.85;;;4.20;;
47167;SDS011;32931;47.778;17.806;2023-07-20T04:19:17;9.32;;;4.20;;
47167;SDS011;32931;47.778;17.806;2023-07-20T04:21:43;10.68;;;4.40;;
47167;SDS011;32931;47.778;17.806;2023-07-20T04:24:09;8.40;;;3.95;;
47167;SDS011;32931;47.778;17.806;2023-07-20T04:26:36;15.07;;;4.57;;
47167;SDS011;32931;47.778;17.806;2023-07-20T04:29:02;14.82;;;4.30;;
47167;SDS011;32931;47.778;17.806;2023-07-20T04:31:29;9.07;;;3.97;;
47167;SDS011;32931;47.778;17.806;2023-07-20T04:33:58;8.98;;;3.83;;
47167;SDS011;32931;47.778;17.806;2023-07-20T04:36:24;8.82;;;4.28;;
47167;SDS011;32931;47.778;17.806;2023-07-20T04:38:50;7.45;;;4.22;;
47167;SDS011;32931;47.778;17.806;2023-07-20T04:41:17;10.07;;;4.30;;
47167;SDS011;32931;47.778;17.806;2023-07-20T04:43:43;12.98;;;4.10;;
47167;SDS011;32931;47.778;17.806;2023-07-20T04:46:10;8.85;;;4.70;;
47167;SDS011;32931;47.778;17.806;2023-07-20T04:48:36;9.43;;;4.22;;
47167;SDS011;32931;47.778;17.806;2023-07-20T04:51:03;11.32;;;4.35;;
47167;SDS011;32931;47.778;17.806;2023-07-20T04:53:29;10.48;;;3.78;;
47167;SDS011;32931;47.778;17.806;2023-07-20T04:55:56;7.60;;;4.10;;
47167;SDS011;32931;47.778;17.806;2023-07-20T04:58:22;8.23;;;4.50;;
47167;SDS011;32931;47.778;17.806;2023-07-20T05:00:49;8.70;;;4.40;;
47167;SDS011;32931;47.778;17.806;2023-07-20T05:03:16;12.38;;;4.40;;
47167;SDS011;32931;47.778;17.806;2023-07-20T05:05:42;8.43;;;4.43;;
47167;SDS011;32931;47.778;17.806;2023-07-20T05:08:08;9.13;;;4.40;;
47167;SDS011;32931;47.778;17.806;2023-07-20T05:10:35;12.20;;;4.10;;
47167;SDS011;32931;47.778;17.806;2023-07-20T05:13:01;9.57;;;4.40;;
47167;SDS011;32931;47.778;17.806;2023-07-20T05:15:27;13.10;;;4.32;;
47167;SDS011;32931;47.778;17.806;2023-07-20T05:17:53;12.05;;;4.70;;
47167;SDS011;32931;47.778;17.806;2023-07-20T05:20:20;8.80;;;4.40;;
47167;SDS011;32931;47.778;17.806;2023-07-20T05:22:46;10.40;;;4.75;;
47167;SDS011;32931;47.778;17.806;2023-07-20T05:25:12;11.38;;;4.53;;
47167;SDS011;32931;47.778;17.806;2023-07-20T05:27:39;11.07;;;4.72;;
47167;SDS011;32931;47.778;17.806;2023-07-20T05:30:06;8.35;;;4.40;;
47167;SDS011;32931;47.778;17.806;2023-07-20T05:32:33;7.72;;;4.22;;
47167;SDS011;32931;47.778;17.806;2023-07-20T05:34:59;10.73;;;4.47;;
47167;SDS011;32931;47.778;17.806;2023-07-20T05:37:25;11.13;;;4.40;;
47167;SDS011;32931;47.778;17.806;2023-07-20T05:39:51;7.55;;;4.35;;
47167;SDS011;32931;47.778;17.806;2023-07-20T05:42:17;15.77;;;4.45;;
47167;SDS011;32931;47.778;17.806;2023-07-20T05:44:44;9.70;;;4.45;;
47167;SDS011;32931;47.778;17.806;2023-07-20T05:47:10;12.70;;;4.35;;
47167;SDS011;32931;47.778;17.806;2023-07-20T05:49:36;9.85;;;3.80;;
47167;SDS011;32931;47.778;17.806;2023-07-20T05:52:02;13.15;;;3.92;;
47167;SDS011;32931;47.778;17.806;2023-07-20T05:54:28;11.68;;;3.70;;
47167;SDS011;32931;47.778;17.806;2023-07-20T05:56:55;11.35;;;3.97;;
47167;SDS011;32931;47.778;17.806;2023-07-20T05:59:21;12.82;;;4.05;;
47167;SDS011;32931;47.778;17.806;2023-07-20T06:01:49;12.43;;;3.88;;
47167;SDS011;32931;47.778;17.806;2023-07-20T06:04:15;12.30;;;4.22;;
47167;SDS011;32931;47.778;17.806;2023-07-20T06:06:41;7.35;;;3.70;;
47167;SDS011;32931;47.778;17.806;2023-07-20T06:09:07;11.23;;;4.18;;
47167;SDS011;32931;47.778;17.806;2023-07-20T06:11:38;7.47;;;3.78;;
47167;SDS011;32931;47.778;17.806;2023-07-20T06:14:05;8.93;;;3.60;;
47167;SDS011;32931;47.778;17.806;2023-07-20T06:16:31;7.78;;;3.60;;
47167;SDS011;32931;47.778;17.806;2023-07-20T06:19:00;9.70;;;4.03;;
47167;SDS011;32931;47.778;17.806;2023-07-20T06:21:26;6.78;;;3.63;;
47167;SDS011;32931;47.778;17.806;2023-07-20T06:23:52;6.18;;;4.05;;
47167;SDS011;32931;47.778;17.806;2023-07-20T06:26:18;9.90;;;3.65;;
47167;SDS011;32931;47.778;17.806;2023-07-20T06:28:45;9.30;;;3.83;;
47167;SDS011;32931;47.778;17.806;2023-07-20T06:31:11;11.25;;;3.78;;
47167;SDS011;32931;47.778;17.806;2023-07-20T06:33:37;8.48;;;3.90;;
47167;SDS011;32931;47.778;17.806;2023-07-20T06:36:03;10.65;;;4.32;;
47167;SDS011;32931;47.778;17.806;2023-07-20T06:38:30;7.72;;;4.05;;
47167;SDS011;32931;47.778;17.806;2023-07-20T06:40:56;13.50;;;3.70;;
47167;SDS011;32931;47.778;17.806;2023-07-20T06:43:22;17.35;;;3.88;;
47167;SDS011;32931;47.778;17.806;2023-07-20T06:45:51;8.52;;;3.90;;
47167;SDS011;32931;47.778;17.806;2023-07-20T06:48:19;6.63;;;3.70;;
47167;SDS011;32931;47.778;17.806;2023-07-20T06:50:45;12.68;;;3.72;;
47167;SDS011;32931;47.778;17.806;2023-07-20T06:53:11;9.15;;;4.13;;
47167;SDS011;32931;47.778;17.806;2023-07-20T06:55:38;10.40;;;3.78;;
47167;SDS011;32931;47.778;17.806;2023-07-20T06:58:05;6.32;;;3.72;;
47167;SDS011;32931;47.778;17.806;2023-07-20T07:00:31;7.22;;;4.15;;
47167;SDS011;32931;47.778;17.806;2023-07-20T07:02:57;9.95;;;4.05;;
47167;SDS011;32931;47.778;17.806;2023-07-20T07:05:23;10.60;;;4.10;;
47167;SDS011;32931;47.778;17.806;2023-07-20T07:07:49;9.05;;;4.07;;
47167;SDS011;32931;47.778;17.806;2023-07-20T07:10:15;8.80;;;4.10;;
47167;SDS011;32931;47.778;17.806;2023-07-20T07:12:42;9.13;;;3.65;;
47167;SDS011;32931;47.778;17.806;2023-07-20T07:15:08;9.02;;;4.00;;
47167;SDS011;32931;47.778;17.806;2023-07-20T07:17:36;14.60;;;4.20;;
47167;SDS011;32931;47.778;17.806;2023-07-20T07:20:02;8.68;;;3.65;;
47167;SDS011;32931;47.778;17.806;2023-07-20T07:22:29;9.05;;;3.63;;
47167;SDS011;32931;47.778;17.806;2023-07-20T07:24:56;10.00;;;3.35;;
47167;SDS011;32931;47.778;17.806;2023-07-20T07:27:22;6.82;;;3.75;;
47167;SDS011;32931;47.778;17.806;2023-07-20T07:29:48;10.15;;;3.35;;
47167;SDS011;32931;47.778;17.806;2023-07-20T07:32:15;6.70;;;3.75;;
47167;SDS011;32931;47.778;17.806;2023-07-20T07:34:41;10.98;;;3.90;;
47167;SDS011;32931;47.778;17.806;2023-07-20T07:37:07;6.20;;;2.83;;
47167;SDS011;32931;47.778;17.806;2023-07-20T07:39:33;6.60;;;3.53;;
47167;SDS011;32931;47.778;17.806;2023-07-20T07:41:59;9.90;;;3.78;;
47167;SDS011;32931;47.778;17.806;2023-07-20T07:44:26;12.55;;;3.63;;
47167;SDS011;32931;47.778;17.806;2023-07-20T07:46:52;7.80;;;3.65;;
47167;SDS011;32931;47.778;17.806;2023-07-20T07:49:18;9.07;;;3.70;;
47167;SDS011;32931;47.778;17.806;2023-07-20T07:51:44;10.82;;;3.67;;
47167;SDS011;32931;47.778;17.806;2023-07-20T07:54:11;10.90;;;3.53;;
47167;SDS011;32931;47.778;17.806;2023-07-20T07:56:37;17.20;;;3.92;;
47167;SDS011;32931;47.778;17.806;2023-07-20T07:59:04;10.60;;;3.53;;
47167;SDS011;32931;47.778;17.806;2023-07-20T08:01:30;8.77;;;3.80;;
47167;SDS011;32931;47.778;17.806;2023-07-20T08:03:56;13.32;;;3.65;;
47167;SDS011;32931;47.778;17.806;2023-07-20T08:06:22;7.65;;;3.10;;
47167;SDS011;32931;47.778;17.806;2023-07-20T08:08:50;7.88;;;3.20;;
47167;SDS011;32931;47.778;17.806;2023-07-20T08:11:16;10.10;;;3.00;;
47167;SDS011;32931;47.778;17.806;2023-07-20T08:13:43;12.40;;;3.08;;
47167;SDS011;32931;47.778;17.806;2023-07-20T08:16:09;9.73;;;2.78;;
47167;SDS011;32931;47.778;17.806;2023-07-20T08:18:35;7.93;;;2.95;;
47167;SDS011;32931;47.778;17.806;2023-07-20T08:21:02;6.55;;;2.70;;
47167;SDS011;32931;47.778;17.806;2023-07-20T08:23:28;7.15;;;2.72;;
47167;SDS011;32931;47.778;17.806;2023-07-20T08:25:55;13.32;;;3.20;;
47167;SDS011;32931;47.778;17.806;2023-07-20T08:28:21;12.38;;;3.17;;
47167;SDS011;32931;47.778;17.806;2023-07-20T08:30:48;10.98;;;2.88;;
47167;SDS011;32931;47.778;17.806;2023-07-20T08:33:15;9.07;;;3.17;;
47167;SDS011;32931;47.778;17.806;2023-07-20T08:35:43;11.05;;;3.10;;
47167;SDS011;32931;47.778;17.806;2023-07-20T08:38:09;9.45;;;3.33;;
47167;SDS011;32931;47.778;17.806;2023-07-20T08:40:39;9.23;;;2.88;;
47167;SDS011;32931;47.778;17.806;2023-07-20T08:43:06;9.45;;;3.00;;
47167;SDS011;32931;47.778;17.806;2023-07-20T08:45:33;7.88;;;2.88;;
47167;SDS011;32931;47.778;17.806;2023-07-20T08:48:02;4.28;;;2.50;;
47167;SDS011;32931;47.778;17.806;2023-07-20T08:50:30;9.88;;;3.30;;
47167;SDS011;32931;47.778;17.806;2023-07-20T08:52:57;7.15;;;2.83;;
47167;SDS011;32931;47.778;17.806;2023-07-20T08:55:25;11.80;;;3.00;;
47167;SDS011;32931;47.778;17.806;2023-07-20T08:57:55;9.73;;;3.13;;
47167;SDS011;32931;47.778;17.806;2023-07-20T09:00:23;8.07;;;2.92;;
47167;SDS011;32931;47.778;17.806;2023-07-20T09:02:52;16.80;;;3.05;;
47167;SDS011;32931;47.778;17.806;2023-07-20T09:05:19;18.50;;;3.58;;
47167;SDS011;32931;47.778;17.806;2023-07-20T09:07:46;22.17;;;3.60;;
47167;SDS011;32931;47.778;17.806;2023-07-20T09:10:13;9.70;;;3.53;;
47167;SDS011;32931;47.778;17.806;2023-07-20T09:12:40;12.45;;;3.20;;
47167;SDS011;32931;47.778;17.806;2023-07-20T09:15:09;11.32;;;3.20;;
47167;SDS011;32931;47.778;17.806;2023-07-20T09:17:37;13.27;;;3.45;;
47167;SDS011;32931;47.778;17.806;2023-07-20T09:20:07;12.13;;;2.90;;
47167;SDS011;32931;47.778;17.806;2023-07-20T09:22:39;7.75;;;3.10;;
47167;SDS011;32931;47.778;17.806;2023-07-20T09:25:06;7.63;;;2.85;;
47167;SDS011;32931;47.778;17.806;2023-07-20T09:27:40;9.23;;;3.20;;
47167;SDS011;32931;47.778;17.806;2023-07-20T09:30:07;9.75;;;3.25;;
47167;SDS011;32931;47.778;17.806;2023-07-20T09:32:42;11.35;;;2.90;;
47167;SDS011;32931;47.778;17.806;2023-07-20T09:35:15;13.05;;;3.17;;
47167;SDS011;32931;47.778;17.806;2023-07-20T09:38:00;17.48;;;3.42;;
47167;SDS011;32931;47.778;17.806;2023-07-20T09:40:27;22.60;;;3.97;;
47167;SDS011;32931;47.778;17.806;2023-07-20T09:42:54;8.02;;;2.65;;
47167;SDS011;32931;47.778;17.806;2023-07-20T09:48:24;6.93;;;2.70;;
47167;SDS011;32931;47.778;17.806;2023-07-20T09:50:51;7.65;;;2.65;;
47167;SDS011;32931;47.778;17.806;2023-07-20T09:53:19;12.50;;;2.78;;
47167;SDS011;32931;47.778;17.806;2023-07-20T09:55:46;13.85;;;2.88;;
47167;SDS011;32931;47.778;17.806;2023-07-20T09:58:14;7.68;;;3.20;;
47167;SDS011;32931;47.778;17.806;2023-07-20T10:00:41;9.68;;;2.42;;
47167;SDS011;32931;47.778;17.806;2023-07-20T10:03:10;13.50;;;3.33;;
47167;SDS011;32931;47.778;17.806;2023-07-20T10:05:46;6.05;;;2.67;;
47167;SDS011;32931;47.778;17.806;2023-07-20T10:08:17;7.30;;;2.50;;
47167;SDS011;32931;47.778;17.806;2023-07-20T10:10:46;7.30;;;2.60;;
47167;SDS011;32931;47.778;17.806;2023-07-20T10:13:15;9.60;;;2.65;;
47167;SDS011;32931;47.778;17.806;2023-07-20T10:15:46;6.35;;;2.40;;
47167;SDS011;32931;47.778;17.806;2023-07-20T10:18:17;9.05;;;2.58;;
47167;SDS011;32931;47.778;17.806;2023-07-20T10:20:50;16.38;;;2.75;;
47167;SDS011;32931;47.778;17.806;2023-07-20T10:23:19;10.60;;;2.80;;
47167;SDS011;32931;47.778;17.806;2023-07-20T10:25:46;5.50;;;2.50;;
47167;SDS011;32931;47.778;17.806;2023-07-20T10:28:12;10.95;;;2.50;;
47167;SDS011;32931;47.778;17.806;2023-07-20T10:30:39;15.25;;;2.58;;
47167;SDS011;32931;47.778;17.806;2023-07-20T10:33:07;6.95;;;2.60;;
47167;SDS011;32931;47.778;17.806;2023-07-20T10:35:53;8.57;;;2.47;;
47167;SDS011;32931;47.778;17.806;2023-07-20T10:39:06;9.85;;;2.50;;
47167;SDS011;32931;47.778;17.806;2023-07-20T10:43:45;9.93;;;2.47;;
47167;SDS011;32931;47.778;17.806;2023-07-20T10:46:11;6.00;;;2.50;;
47167;SDS011;32931;47.778;17.806;2023-07-20T10:51:30;9.82;;;2.33;;
47167;SDS011;32931;47.778;17.806;2023-07-20T10:54:03;7.22;;;2.15;;
47167;SDS011;32931;47.778;17.806;2023-07-20T10:56:34;4.45;;;2.08;;
47167;SDS011;32931;47.778;17.806;2023-07-20T10:59:00;5.50;;;2.40;;
47167;SDS011;32931;47.778;17.806;2023-07-20T11:01:43;9.10;;;2.30;;
47167;SDS011;32931;47.778;17.806;2023-07-20T11:04:10;10.45;;;2.47;;
47167;SDS011;32931;47.778;17.806;2023-07-20T11:06:37;11.25;;;2.33;;
47167;SDS011;32931;47.778;17.806;2023-07-20T11:09:06;6.53;;;2.50;;
47167;SDS011;32931;47.778;17.806;2023-07-20T11:11:37;6.85;;;2.50;;
47167;SDS011;32931;47.778;17.806;2023-07-20T11:14:05;8.00;;;2.67;;
47167;SDS011;32931;47.778;17.806;2023-07-20T11:18:59;9.70;;;2.53;;
47167;SDS011;32931;47.778;17.806;2023-07-20T11:21:25;8.95;;;2.03;;
47167;SDS011;32931;47.778;17.806;2023-07-20T11:23:52;6.28;;;2.20;;
47167;SDS011;32931;47.778;17.806;2023-07-20T11:26:19;7.18;;;2.25;;
47167;SDS011;32931;47.778;17.806;2023-07-20T11:28:51;7.60;;;2.33;;
47167;SDS011;32931;47.778;17.806;2023-07-20T11:31:18;5.57;;;2.05;;
47167;SDS011;32931;47.778;17.806;2023-07-20T11:33:44;4.93;;;2.10;;
47167;SDS011;32931;47.778;17.806;2023-07-20T11:36:12;9.43;;;2.13;;
47167;SDS011;32931;47.778;17.806;2023-07-20T11:38:41;3.60;;;2.00;;
47167;SDS011;32931;47.778;17.806;2023-07-20T11:41:11;7.90;;;2.05;;
47167;SDS011;32931;47.778;17.806;2023-07-20T11:43:38;4.65;;;2.10;;
47167;SDS011;32931;47.778;17.806;2023-07-20T11:46:07;4.22;;;1.98;;
47167;SDS011;32931;47.778;17.806;2023-07-20T11:48:34;9.05;;;2.00;;
47167;SDS011;32931;47.778;17.806;2023-07-20T11:51:00;4.95;;;1.92;;
47167;SDS011;32931;47.778;17.806;2023-07-20T11:53:26;4.22;;;1.98;;
47167;SDS011;32931;47.778;17.806;2023-07-20T11:55:53;6.28;;;1.80;;
47167;SDS011;32931;47.778;17.806;2023-07-20T11:58:19;6.30;;;1.73;;
47167;SDS011;32931;47.778;17.806;2023-07-20T12:00:47;4.65;;;2.00;;
47167;SDS011;32931;47.778;17.806;2023-07-20T12:03:13;7.68;;;1.95;;
47167;SDS011;32931;47.778;17.806;2023-07-20T12:05:39;3.95;;;1.70;;
47167;SDS011;32931;47.778;17.806;2023-07-20T12:08:05;7.93;;;2.10;;
47167;SDS011;32931;47.778;17.806;2023-07-20T12:10:32;7.93;;;1.77;;
47167;SDS011;32931;47.778;17.806;2023-07-20T12:13:02;14.68;;;1.95;;
47167;SDS011;32931;47.778;17.806;2023-07-20T12:15:29;9.35;;;2.35;;
47167;SDS011;32931;47.778;17.806;2023-07-20T12:18:00;11.25;;;1.92;;
47167;SDS011;32931;47.778;17.806;2023-07-20T12:20:34;7.00;;;2.17;;
47167;SDS011;32931;47.778;17.806;2023-07-20T12:23:03;4.30;;;2.28;;
47167;SDS011;32931;47.778;17.806;2023-07-20T12:25:37;5.87;;;1.93;;
47167;SDS011;32931;47.778;17.806;2023-07-20T12:30:38;5.05;;;2.20;;
47167;SDS011;32931;47.778;17.806;2023-07-20T12:33:05;6.43;;;2.10;;
47167;SDS011;32931;47.778;17.806;2023-07-20T12:35:31;10.85;;;2.90;;
47167;SDS011;32931;47.778;17.806;2023-07-20T12:37:58;5.22;;;2.42;;
47167;SDS011;32931;47.778;17.806;2023-07-20T12:40:25;5.97;;;2.00;;
47167;SDS011;32931;47.778;17.806;2023-07-20T12:42:51;6.50;;;2.50;;
47167;SDS011;32931;47.778;17.806;2023-07-20T12:45:17;7.72;;;2.40;;
47167;SDS011;32931;47.778;17.806;2023-07-20T12:47:43;6.50;;;2.25;;
47167;SDS011;32931;47.778;17.806;2023-07-20T12:50:10;7.43;;;2.28;;
47167;SDS011;32931;47.778;17.806;2023-07-20T12:52:37;5.28;;;2.17;;
47167;SDS011;32931;47.778;17.806;2023-07-20T12:55:07;8.18;;;2.00;;
47167;SDS011;32931;47.778;17.806;2023-07-20T12:57:35;9.10;;;2.50;;
47167;SDS011;32931;47.778;17.806;2023-07-20T13:00:02;4.95;;;2.30;;
47167;SDS011;32931;47.778;17.806;2023-07-20T13:02:30;2.88;;;1.92;;
47167;SDS011;32931;47.778;17.806;2023-07-20T13:04:58;8.00;;;2.47;;
47167;SDS011;32931;47.778;17.806;2023-07-20T13:07:30;10.23;;;2.30;;
47167;SDS011;32931;47.778;17.806;2023-07-20T13:09:58;3.75;;;2.05;;
47167;SDS011;32931;47.778;17.806;2023-07-20T13:12:26;6.70;;;2.25;;
47167;SDS011;32931;47.778;17.806;2023-07-20T13:14:53;12.35;;;2.42;;
47167;SDS011;32931;47.778;17.806;2023-07-20T13:17:20;7.70;;;2.35;;
47167;SDS011;32931;47.778;17.806;2023-07-20T13:19:46;6.65;;;2.05;;
47167;SDS011;32931;47.778;17.806;2023-07-20T13:22:12;8.18;;;2.25;;
47167;SDS011;32931;47.778;17.806;2023-07-20T13:24:40;12.52;;;2.00;;
47167;SDS011;32931;47.778;17.806;2023-07-20T13:27:07;6.47;;;2.30;;
47167;SDS011;32931;47.778;17.806;2023-07-20T13:29:33;6.45;;;2.05;;
47167;SDS011;32931;47.778;17.806;2023-07-20T13:31:59;8.00;;;2.38;;
47167;SDS011;32931;47.778;17.806;2023-07-20T13:34:25;8.13;;;2.42;;
47167;SDS011;32931;47.778;17.806;2023-07-20T13:36:52;5.78;;;2.15;;
47167;SDS011;32931;47.778;17.806;2023-07-20T13:39:18;6.65;;;2.60;;
47167;SDS011;32931;47.778;17.806;2023-07-20T13:41:44;11.07;;;2.35;;
47167;SDS011;32931;47.778;17.806;2023-07-20T13:44:11;7.63;;;2.38;;
47167;SDS011;32931;47.778;17.806;2023-07-20T13:46:37;9.77;;;2.50;;
47167;SDS011;32931;47.778;17.806;2023-07-20T13:49:03;7.47;;;2.30;;
47167;SDS011;32931;47.778;17.806;2023-07-20T13:51:29;9.00;;;2.13;;
47167;SDS011;32931;47.778;17.806;2023-07-20T13:53:56;4.85;;;2.22;;
47167;SDS011;32931;47.778;17.806;2023-07-20T13:56:23;9.95;;;2.67;;
47167;SDS011;32931;47.778;17.806;2023-07-20T13:58:50;8.52;;;2.15;;
47167;SDS011;32931;47.778;17.806;2023-07-20T14:01:16;4.00;;;2.45;;
47167;SDS011;32931;47.778;17.806;2023-07-20T14:03:45;4.85;;;2.50;;
47167;SDS011;32931;47.778;17.806;2023-07-20T14:06:12;11.52;;;3.17;;
47167;SDS011;32931;47.778;17.806;2023-07-20T14:08:38;4.57;;;2.10;;
47167;SDS011;32931;47.778;17.806;2023-07-20T14:11:05;8.98;;;2.40;;
47167;SDS011;32931;47.778;17.806;2023-07-20T14:13:32;7.88;;;2.17;;
47167;SDS011;32931;47.778;17.806;2023-07-20T14:15:58;7.93;;;2.80;;
47167;SDS011;32931;47.778;17.806;2023-07-20T14:18:24;8.13;;;2.42;;
47167;SDS011;32931;47.778;17.806;2023-07-20T14:20:50;6.13;;;2.38;;
47167;SDS011;32931;47.778;17.806;2023-07-20T14:23:16;6.13;;;2.30;;
47167;SDS011;32931;47.778;17.806;2023-07-20T14:25:42;10.35;;;2.50;;
47167;SDS011;32931;47.778;17.806;2023-07-20T14:28:09;4.95;;;2.33;;
47167;SDS011;32931;47.778;17.806;2023-07-20T14:30:35;5.40;;;2.30;;
47167;SDS011;32931;47.778;17.806;2023-07-20T14:33:01;7.32;;;2.15;;
47167;SDS011;32931;47.778;17.806;2023-07-20T14:35:27;4.80;;;2.45;;
47167;SDS011;32931;47.778;17.806;2023-07-20T14:37:53;7.50;;;2.35;;
47167;SDS011;32931;47.778;17.806;2023-07-20T14:40:19;6.20;;;2.03;;
47167;SDS011;32931;47.778;17.806;2023-07-20T14:42:46;7.80;;;2.50;;
47167;SDS011;32931;47.778;17.806;2023-07-20T14:45:12;9.70;;;2.80;;
47167;SDS011;32931;47.778;17.806;2023-07-20T14:47:38;8.88;;;2.20;;
47167;SDS011;32931;47.778;17.806;2023-07-20T14:50:05;11.13;;;2.33;;
47167;SDS011;32931;47.778;17.806;2023-07-20T14:52:31;8.07;;;2.50;;
47167;SDS011;32931;47.778;17.806;2023-07-20T14:54:58;4.70;;;2.25;;
47167;SDS011;32931;47.778;17.806;2023-07-20T14:57:24;8.15;;;2.65;;
47167;SDS011;32931;47.778;17.806;2023-07-20T14:59:50;6.47;;;2.20;;
47167;SDS011;32931;47.778;17.806;2023-07-20T15:02:16;4.63;;;2.05;;